»·PEaware :: NGF6972 KPDX-KRDD

NGF6972 :: KPDX-KRDD

FLIGHT INFORMATION

Flight Status: Arrived
Operator: Unknown
More flights by this operator :: More flights under this callsign
Pilot: Justin A. (23118)
Aircraft: CIRRUS VISIONJET
(SF50)
More flights by this aircraft type
Origin: KPDX Portland Intl
United States
Destination: KRDD Redding Mun
United States
More flights between these airports :: More routes between these airports
Route: +PTDL1 EUG J126 RBL
File this flight plan on PilotEdge
Remarks: / / DUAL COCKPIT W / NEW PE USER WHO IS ALSO FORMER ATCS (1970 / 80s)
Altitude:
(Current/Filed)
27,000ft
Speed:
(Current/Filed)
250kts
Departed: 25-Apr-19 05:33 PM
Arrived: 25-Apr-19 06:47 PM
Distance/Time
Traveled:
305nm/1:14
Distance/Time
To Go:
Arrived

Flight Plot

Page will automatically refresh every two minutes.

Flight plan parsing failed; only flown route is shown


Map Options




Map Legend


Flown Route
Filed Route
Departure Airport
Arrival Airport
Navaid (VOR, NDB)
Fix

Horizontal Profiles

Position Reports

Time Latitude Longitude Heading Altitude Ground
Speed
25-Apr-19 16:55 45.587407 -122.585341 28 33ft 0kts
25-Apr-19 16:56 45.587476 -122.585288 27 33ft 3kts
25-Apr-19 16:57 45.587801 -122.584447 199 33ft 0kts
25-Apr-19 16:58 45.587779 -122.584457 198 33ft 0kts
25-Apr-19 16:59 45.587779 -122.584457 198 33ft 0kts
25-Apr-19 17:00 45.587779 -122.584457 198 33ft 0kts
25-Apr-19 17:01 45.587779 -122.584457 198 33ft 0kts
25-Apr-19 17:02 45.587779 -122.584457 198 33ft 0kts
25-Apr-19 17:03 45.587779 -122.584457 198 33ft 0kts
25-Apr-19 17:04 45.587779 -122.584457 198 33ft 0kts
25-Apr-19 17:05 45.587779 -122.584457 198 33ft 0kts
25-Apr-19 17:06 45.587779 -122.584457 198 33ft 0kts
25-Apr-19 17:07 45.587779 -122.584457 198 33ft 0kts
25-Apr-19 17:08 45.587779 -122.584457 198 33ft 0kts
25-Apr-19 17:09 45.587779 -122.584457 198 33ft 0kts
25-Apr-19 17:10 45.587779 -122.584457 198 33ft 0kts
25-Apr-19 17:11 45.587779 -122.584457 198 33ft 0kts
25-Apr-19 17:12 45.587779 -122.584457 198 33ft 0kts
25-Apr-19 17:13 45.587779 -122.584457 198 33ft 0kts
25-Apr-19 17:14 45.587779 -122.584457 198 33ft 0kts
25-Apr-19 17:15 45.587779 -122.584457 198 33ft 0kts
25-Apr-19 17:16 45.587779 -122.584457 198 33ft 0kts
25-Apr-19 17:17 45.587779 -122.584457 198 33ft 0kts
25-Apr-19 17:18 45.587779 -122.584457 198 33ft 0kts
25-Apr-19 17:19 45.587779 -122.584457 198 33ft 0kts
25-Apr-19 17:20 45.587779 -122.584457 198 33ft 0kts
25-Apr-19 17:21 45.587779 -122.584457 198 33ft 0kts
25-Apr-19 17:22 45.587779 -122.584457 198 33ft 0kts
25-Apr-19 17:23 45.587779 -122.584457 198 33ft 0kts
25-Apr-19 17:24 45.587779 -122.584457 198 33ft 0kts
25-Apr-19 17:25 45.587648 -122.584222 101 33ft 0kts
25-Apr-19 17:26 45.587684 -122.583852 78 33ft 2kts
25-Apr-19 17:27 45.588146 -122.581776 115 33ft 7kts
25-Apr-19 17:28 45.586150 -122.576662 120 33ft 12kts
25-Apr-19 17:29 45.584293 -122.571903 118 33ft 20kts
25-Apr-19 17:30 45.583022 -122.568631 119 33ft 0kts
25-Apr-19 17:31 45.582711 -122.567425 79 33ft 1kts
25-Apr-19 17:32 45.584856 -122.570116 298 33ft 77kts
25-Apr-19 17:33 45.604038 -122.620286 297 371ft 246kts
25-Apr-19 17:34 45.642074 -122.723371 298 1625ft 297kts
25-Apr-19 17:35 45.678656 -122.824391 294 4553ft 281kts
25-Apr-19 17:36 45.634704 -122.894171 197 7455ft 282kts
25-Apr-19 17:37 45.564284 -122.917746 195 10216ft 270kts
25-Apr-19 17:38 45.492929 -122.939757 195 12896ft 262kts
25-Apr-19 17:39 45.421932 -122.960257 195 15003ft 269kts
25-Apr-19 17:40 45.344047 -122.971106 188 16473ft 277kts
25-Apr-19 17:41 45.269953 -122.976472 193 18699ft 258kts
25-Apr-19 17:42 45.200162 -122.983040 187 20925ft 248kts
25-Apr-19 17:43 45.135126 -122.995214 197 23045ft 233kts
25-Apr-19 17:44 45.073516 -123.009344 197 24580ft 236kts
25-Apr-19 17:45 45.010629 -123.023629 198 26514ft 224kts
25-Apr-19 17:46 44.945467 -123.038772 196 27065ft 263kts
25-Apr-19 17:47 44.870561 -123.055593 196 27059ft 293kts
25-Apr-19 17:48 44.788174 -123.074120 195 27060ft 305kts
25-Apr-19 17:49 44.709401 -123.091777 196 27062ft 295kts
25-Apr-19 17:50 44.629713 -123.109692 196 27073ft 289kts
25-Apr-19 17:51 44.550339 -123.127483 196 27074ft 287kts
25-Apr-19 17:52 44.471268 -123.145149 196 27073ft 286kts
25-Apr-19 17:53 44.392818 -123.162628 196 27076ft 286kts
25-Apr-19 17:54 44.314587 -123.180001 196 27072ft 285kts
25-Apr-19 17:55 44.237321 -123.197109 196 27083ft 275kts
25-Apr-19 17:56 44.173252 -123.211298 196 27068ft 267kts
25-Apr-19 17:57 44.111116 -123.219836 181 27067ft 287kts
25-Apr-19 17:58 44.036816 -123.206531 180 27063ft 293kts
25-Apr-19 17:59 43.950737 -123.189908 180 26985ft 297kts
25-Apr-19 18:00 43.878270 -123.175901 180 27147ft 291kts
25-Apr-19 18:01 43.798715 -123.160366 182 29077ft 244kts
25-Apr-19 18:02 43.733863 -123.147836 185 30996ft 202kts
25-Apr-19 18:03 43.677743 -123.137769 184 31321ft 233kts
25-Apr-19 18:04 43.606945 -123.124169 182 31067ft 270kts
25-Apr-19 18:05 43.530564 -123.109476 181 31051ft 282kts
25-Apr-19 18:06 43.451515 -123.094427 181 31031ft 288kts
25-Apr-19 18:07 43.372072 -123.079358 181 31026ft 290kts
25-Apr-19 18:08 43.292513 -123.064318 181 31028ft 291kts
25-Apr-19 18:09 43.210702 -123.048891 181 31028ft 291kts
25-Apr-19 18:10 43.128724 -123.033485 181 31028ft 292kts
25-Apr-19 18:11 43.046992 -123.018166 181 31028ft 292kts
25-Apr-19 18:12 42.964653 -123.002884 180 31035ft 293kts
25-Apr-19 18:13 42.883990 -122.987816 179 31008ft 295kts
25-Apr-19 18:14 42.820805 -122.975967 178 30993ft 296kts
25-Apr-19 18:15 42.758053 -122.964294 178 30985ft 297kts
25-Apr-19 18:16 42.676155 -122.949125 178 30975ft 298kts
25-Apr-19 18:17 42.594155 -122.933979 178 30978ft 298kts
25-Apr-19 18:18 42.512225 -122.918890 178 30975ft 298kts
25-Apr-19 18:19 42.430272 -122.898775 174 30966ft 301kts
25-Apr-19 18:20 42.363573 -122.855713 202 30966ft 269kts
25-Apr-19 18:22 42.285347 -122.854604 174 30288ft 315kts
25-Apr-19 18:23 42.193811 -122.829163 172 28235ft 353kts
25-Apr-19 18:24 42.096360 -122.800621 172 26209ft 363kts
25-Apr-19 18:25 41.998328 -122.771992 172 24972ft 346kts
25-Apr-19 18:26 41.909934 -122.746343 172 24980ft 324kts
25-Apr-19 18:27 41.822641 -122.721122 172 24985ft 318kts
25-Apr-19 18:28 41.736438 -122.696292 172 24726ft 323kts
25-Apr-19 18:29 41.646448 -122.670428 172 23699ft 338kts
25-Apr-19 18:30 41.553900 -122.643859 172 22657ft 341kts
25-Apr-19 18:31 41.461066 -122.617286 171 21605ft 342kts
25-Apr-19 18:32 41.368332 -122.590852 171 20579ft 341kts
25-Apr-19 18:33 41.275488 -122.564450 171 19528ft 341kts
25-Apr-19 18:34 41.182831 -122.538221 172 18473ft 340kts
25-Apr-19 18:35 41.091497 -122.503960 163 17178ft 348kts
25-Apr-19 18:36 41.013296 -122.468044 163 14785ft 264kts
25-Apr-19 18:37 40.947271 -122.438999 163 12230ft 244kts
25-Apr-19 18:38 40.885555 -122.412081 160 9889ft 217kts
25-Apr-19 18:39 40.830685 -122.387902 163 8043ft 191kts
25-Apr-19 18:40 40.782083 -122.367057 163 6682ft 199kts
25-Apr-19 18:40 40.741923 -122.349654 163 6106ft 164kts
25-Apr-19 18:42 40.696545 -122.328539 158 5580ft 187kts
25-Apr-19 18:43 40.638931 -122.301297 170 2731ft 204kts
25-Apr-19 18:43 40.598381 -122.295404 179 1894ft 154kts
25-Apr-19 18:44 40.564426 -122.293247 181 1716ft 114kts
25-Apr-19 18:46 40.529836 -122.294374 183 652ft 96kts
25-Apr-19 18:46 40.516397 -122.294819 174 497ft 0kts

Navigation Log

Ident Type
Flight plan parsing failed, navigation log unavailable